createdAt,value
2023-05-01T00:18:31.156Z,262
2023-05-01T00:38:31.161Z,262
2023-05-01T00:58:31.162Z,260
2023-05-01T01:18:31.169Z,265
2023-05-01T01:38:31.203Z,265
2023-05-01T01:58:31.203Z,265
2023-05-01T02:18:31.233Z,263
2023-05-01T02:38:31.208Z,266
2023-05-01T02:58:31.234Z,267
2023-05-01T03:18:31.250Z,266
2023-05-01T03:38:31.218Z,266
2023-05-01T03:58:31.268Z,266
2023-05-01T04:18:31.251Z,266
2023-05-01T04:38:31.251Z,266
2023-05-01T04:58:31.258Z,268
2023-05-01T05:18:31.283Z,267
2023-05-01T05:38:31.287Z,269
2023-05-01T05:58:31.297Z,268
2023-05-01T06:18:31.285Z,270
2023-05-01T06:38:31.287Z,271
2023-05-01T06:58:31.316Z,277
2023-05-01T07:18:31.322Z,276
2023-05-01T07:38:31.322Z,275
2023-05-01T08:18:31.331Z,270
2023-05-01T08:38:31.343Z,266
2023-05-01T08:58:31.294Z,266
2023-05-01T09:18:31.300Z,262
2023-05-01T09:38:31.300Z,265
2023-05-01T09:58:31.293Z,259
2023-05-01T10:18:31.274Z,262
2023-05-01T10:38:31.300Z,259
2023-05-01T10:58:31.268Z,257
2023-05-01T11:18:31.261Z,255
2023-05-01T11:38:31.259Z,254
2023-05-01T12:38:31.237Z,240
2023-05-01T12:58:31.293Z,251
2023-05-01T13:18:31.224Z,254
2023-05-01T13:38:31.194Z,253
2023-05-01T13:58:31.210Z,244
2023-05-01T14:38:31.169Z,250
2023-05-01T14:58:31.200Z,251
2023-05-01T15:18:31.183Z,247
2023-05-01T15:38:31.192Z,248
2023-05-01T15:58:31.183Z,248
2023-05-01T16:18:31.179Z,250
2023-05-01T16:38:31.162Z,250
2023-05-01T16:58:31.158Z,250
2023-05-01T17:18:31.199Z,253
2023-05-01T17:38:31.146Z,255
2023-05-01T17:58:31.142Z,256
2023-05-01T18:18:31.127Z,259
2023-05-01T18:38:31.156Z,258
2023-05-01T18:58:31.169Z,258
2023-05-01T19:18:31.134Z,254
2023-05-01T19:38:31.136Z,258
2023-05-01T19:58:31.135Z,255
2023-05-01T20:18:31.163Z,255
2023-05-01T20:38:31.114Z,256
2023-05-01T20:58:31.145Z,256
2023-05-01T21:18:31.167Z,256
2023-05-01T21:38:31.109Z,256
2023-05-01T21:58:31.128Z,255
2023-05-01T22:18:31.132Z,259
2023-05-01T22:38:31.144Z,258
2023-05-01T22:58:31.134Z,257
2023-05-01T23:18:31.197Z,258
2023-05-01T23:38:31.172Z,257
2023-05-01T23:58:31.203Z,256
